createdAt,value
2018-07-09T00:00:08.945Z,21.5
2018-07-09T00:01:14.097Z,21.5
2018-07-09T00:02:19.265Z,21.5
2018-07-09T00:04:44.896Z,21.5
2018-07-09T00:05:49.774Z,21.4
2018-07-09T00:06:55.176Z,21.4
2018-07-09T00:08:00.623Z,21.4
2018-07-09T00:09:05.209Z,21.4
2018-07-09T00:10:10.953Z,21.4
2018-07-09T00:11:15.847Z,21.4
2018-07-09T00:12:20.723Z,21.4
2018-07-09T00:13:26.618Z,21.4
2018-07-09T00:14:31.779Z,21.4
2018-07-09T00:15:37.553Z,21.4
2018-07-09T00:16:42.991Z,21.4
2018-07-09T00:17:48.488Z,21.4
2018-07-09T00:18:54.179Z,21.4
2018-07-09T00:19:59.053Z,21.4
2018-07-09T00:21:04.641Z,21.4
2018-07-09T00:22:10.039Z,21.4
2018-07-09T00:23:15.499Z,21.4
2018-07-09T00:24:20.944Z,21.4
2018-07-09T00:25:26.421Z,21.4
2018-07-09T00:26:31.593Z,21.4
2018-07-09T00:27:36.841Z,21.4
2018-07-09T00:28:42.000Z,21.4
2018-07-09T00:29:47.441Z,21.4
2018-07-09T00:30:52.678Z,21.4
2018-07-09T00:31:57.843Z,21.4
2018-07-09T00:33:02.746Z,21.3
2018-07-09T00:34:08.262Z,21.4
2018-07-09T00:35:12.577Z,21.4
2018-07-09T00:36:17.759Z,21.4
2018-07-09T00:37:23.176Z,21.3
2018-07-09T00:38:28.325Z,21.3
2018-07-09T00:39:33.617Z,21.3
2018-07-09T00:40:39.063Z,21.4
2018-07-09T00:41:43.950Z,21.3
2018-07-09T00:42:49.078Z,21.4
2018-07-09T00:43:54.246Z,21.3
2018-07-09T00:44:59.143Z,21.3
2018-07-09T00:46:04.853Z,21.3
2018-07-09T00:47:10.009Z,21.3
2018-07-09T00:48:15.187Z,21.3
2018-07-09T00:49:20.902Z,21.3
2018-07-09T00:50:25.770Z,21.3
2018-07-09T00:51:30.806Z,21.3
2018-07-09T00:52:35.961Z,21.3
2018-07-09T00:53:41.149Z,21.3
2018-07-09T00:54:46.416Z,21.3
2018-07-09T00:55:51.861Z,21.3
2018-07-09T00:56:57.313Z,21.3
2018-07-09T00:58:03.011Z,21.3
2018-07-09T00:59:08.180Z,21.3
2018-07-09T01:00:13.345Z,21.3
2018-07-09T01:01:19.162Z,21.3
2018-07-09T01:02:24.286Z,21.2
2018-07-09T01:03:30.134Z,21.2
2018-07-09T01:04:35.295Z,21.2
2018-07-09T01:05:40.459Z,21.2
2018-07-09T01:06:45.871Z,21.2
2018-07-09T01:07:51.035Z,21.2
2018-07-09T01:08:55.921Z,21.2
2018-07-09T01:10:01.049Z,21.2
2018-07-09T01:11:05.659Z,21.2
2018-07-09T01:12:10.688Z,21.2
2018-07-09T01:13:16.202Z,21.3
2018-07-09T01:14:21.090Z,21.3
2018-07-09T01:15:26.606Z,21.3
2018-07-09T01:16:31.529Z,21.3
2018-07-09T01:17:36.424Z,21.3
2018-07-09T01:18:42.705Z,21.3
2018-07-09T01:19:48.137Z,21.3
2018-07-09T01:20:53.324Z,21.3
2018-07-09T01:21:58.748Z,21.3
2018-07-09T01:23:03.909Z,21.3
2018-07-09T01:24:08.518Z,21.3
2018-07-09T01:25:14.299Z,21.3
2018-07-09T01:26:19.743Z,21.3
2018-07-09T01:27:24.601Z,21.3
2018-07-09T01:28:29.780Z,21.3
2018-07-09T01:29:34.656Z,21.3
2018-07-09T01:30:39.953Z,21.3
2018-07-09T01:31:44.584Z,21.3
2018-07-09T01:32:49.741Z,21.3
2018-07-09T01:33:55.038Z,21.3
2018-07-09T01:35:00.503Z,21.3
2018-07-09T01:36:05.136Z,21.3
2018-07-09T01:37:10.545Z,21.3
2018-07-09T01:38:16.007Z,21.3
2018-07-09T01:39:21.160Z,21.3
2018-07-09T01:40:26.506Z,21.3
2018-07-09T01:41:31.965Z,21.3
2018-07-09T01:42:37.370Z,21.3
2018-07-09T01:43:42.810Z,21.3
2018-07-09T01:44:48.295Z,21.3
2018-07-09T01:45:53.133Z,21.4
2018-07-09T01:46:57.749Z,21.4
2018-07-09T01:48:02.901Z,21.4
2018-07-09T01:49:07.758Z,21.4
2018-07-09T01:50:12.923Z,21.4
2018-07-09T01:51:18.098Z,21.4
2018-07-09T01:52:22.932Z,21.4
2018-07-09T01:53:28.103Z,21.4
2018-07-09T01:54:33.111Z,21.4
2018-07-09T01:55:38.559Z,21.4
2018-07-09T01:56:44.007Z,21.4
2018-07-09T01:57:49.697Z,21.4
2018-07-09T01:58:55.147Z,21.4
2018-07-09T02:00:00.307Z,21.4
2018-07-09T02:01:05.163Z,21.4
2018-07-09T02:02:10.621Z,21.4
2018-07-09T02:03:16.075Z,21.4
2018-07-09T02:04:20.920Z,21.4
2018-07-09T02:05:25.813Z,21.4
2018-07-09T02:06:31.678Z,21.4
2018-07-09T02:07:37.118Z,21.4
2018-07-09T02:08:42.559Z,21.4
2018-07-09T02:09:47.986Z,21.4
2018-07-09T02:10:52.613Z,21.4
2018-07-09T02:11:57.759Z,21.4
2018-07-09T02:13:03.459Z,21.4
2018-07-09T02:14:08.069Z,21.4
2018-07-09T02:15:12.655Z,21.4
2018-07-09T02:16:18.499Z,21.4
2018-07-09T02:17:22.813Z,21.5
2018-07-09T02:18:30.020Z,21.4
2018-07-09T02:19:35.185Z,21.5
2018-07-09T02:20:40.350Z,21.5
2018-07-09T02:21:46.064Z,21.5
2018-07-09T02:22:51.250Z,21.5
2018-07-09T02:23:56.695Z,21.5
2018-07-09T02:25:02.106Z,21.5
2018-07-09T02:26:06.997Z,21.5
2018-07-09T02:27:12.152Z,21.5
2018-07-09T02:28:17.938Z,21.5
2018-07-09T02:29:23.387Z,21.5
2018-07-09T02:30:28.761Z,21.5
2018-07-09T02:31:33.636Z,21.5
2018-07-09T02:32:39.079Z,21.5
2018-07-09T02:33:44.307Z,21.5
2018-07-09T02:34:49.465Z,21.5
2018-07-09T02:35:54.622Z,21.5
2018-07-09T02:36:59.856Z,21.5
2018-07-09T02:38:04.756Z,21.5
2018-07-09T02:39:09.077Z,21.5
2018-07-09T02:40:14.876Z,21.5
2018-07-09T02:41:20.059Z,21.5
2018-07-09T02:42:25.625Z,21.5
2018-07-09T02:43:30.514Z,21.5
2018-07-09T02:44:35.969Z,21.5
2018-07-09T02:45:41.664Z,21.5
2018-07-09T02:46:46.807Z,21.5
2018-07-09T02:47:51.990Z,21.5
2018-07-09T02:48:57.276Z,21.5
2018-07-09T02:50:01.983Z,21.5
2018-07-09T02:51:06.881Z,21.5
2018-07-09T02:52:12.155Z,21.5
2018-07-09T02:53:17.316Z,21.5
2018-07-09T02:54:21.908Z,21.5
2018-07-09T02:55:27.529Z,21.5
2018-07-09T02:56:33.029Z,21.5
2018-07-09T02:57:38.313Z,21.5
2018-07-09T02:58:43.491Z,21.5
2018-07-09T02:59:48.642Z,21.5
2018-07-09T03:00:53.566Z,21.5
2018-07-09T03:01:59.309Z,21.5
2018-07-09T03:03:04.753Z,21.5
2018-07-09T03:04:11.060Z,21.5
2018-07-09T03:05:16.235Z,21.5
2018-07-09T03:06:21.681Z,21.5
2018-07-09T03:07:28.061Z,21.5
2018-07-09T03:08:33.255Z,21.5
2018-07-09T03:09:39.047Z,21.5
2018-07-09T03:10:44.495Z,21.5
2018-07-09T03:11:49.640Z,21.5
2018-07-09T03:12:54.640Z,21.5
2018-07-09T03:14:00.098Z,21.5
2018-07-09T03:15:04.980Z,21.5
2018-07-09T03:16:10.771Z,21.5
2018-07-09T03:17:16.228Z,21.5
2018-07-09T03:18:21.102Z,21.5
2018-07-09T03:19:26.684Z,21.5
2018-07-09T03:20:31.556Z,21.5
2018-07-09T03:21:37.348Z,21.5
2018-07-09T03:22:42.796Z,21.5
2018-07-09T03:23:47.965Z,21.5
2018-07-09T03:24:53.370Z,21.5
2018-07-09T03:25:58.566Z,21.4
2018-07-09T03:27:04.005Z,21.4
2018-07-09T03:28:09.506Z,21.4
2018-07-09T03:29:14.691Z,21.4
2018-07-09T03:30:20.135Z,21.4
2018-07-09T03:31:25.281Z,21.4
2018-07-09T03:32:30.447Z,21.4
2018-07-09T03:33:35.865Z,21.4
2018-07-09T03:34:41.028Z,21.4
2018-07-09T03:35:46.226Z,21.4
2018-07-09T03:36:51.964Z,21.4
2018-07-09T03:37:57.130Z,21.4
2018-07-09T03:39:02.568Z,21.4
2018-07-09T03:40:08.093Z,21.4
2018-07-09T03:41:13.241Z,21.4
2018-07-09T03:42:18.677Z,21.4
2018-07-09T03:43:24.308Z,21.4
2018-07-09T03:44:29.476Z,21.4
2018-07-09T03:45:34.463Z,21.4
2018-07-09T03:46:39.622Z,21.4
2018-07-09T03:47:44.791Z,21.4
2018-07-09T03:48:50.479Z,21.4
2018-07-09T03:49:56.078Z,21.4
2018-07-09T03:51:01.521Z,21.4
2018-07-09T03:52:06.076Z,21.4
2018-07-09T03:53:10.655Z,21.4
2018-07-09T03:54:15.818Z,21.4
2018-07-09T03:55:20.944Z,21.4
2018-07-09T03:56:26.106Z,21.4
2018-07-09T03:57:30.830Z,21.4
2018-07-09T03:58:35.992Z,21.4
2018-07-09T03:59:41.455Z,21.4
2018-07-09T04:00:47.307Z,21.4
2018-07-09T04:01:52.476Z,21.4
2018-07-09T04:02:57.097Z,21.4
2018-07-09T04:04:02.793Z,21.4
2018-07-09T04:05:07.939Z,21.4
2018-07-09T04:06:13.383Z,21.3
2018-07-09T04:07:19.702Z,21.3
2018-07-09T04:08:25.141Z,21.4
2018-07-09T04:09:30.230Z,21.4
2018-07-09T04:10:35.397Z,21.3
2018-07-09T04:11:40.563Z,21.3
2018-07-09T04:12:45.681Z,21.3
2018-07-09T04:13:50.838Z,21.3
2018-07-09T04:14:56.001Z,21.3
2018-07-09T04:16:01.849Z,21.3
2018-07-09T04:17:07.006Z,21.3
2018-07-09T04:18:11.883Z,21.3
2018-07-09T04:19:17.632Z,21.3
2018-07-09T04:20:23.075Z,21.3
2018-07-09T04:21:28.124Z,21.3
2018-07-09T04:22:33.577Z,21.3
2018-07-09T04:23:38.452Z,21.3
2018-07-09T04:24:43.919Z,21.3
2018-07-09T04:25:49.387Z,21.3
2018-07-09T04:26:54.547Z,21.3
2018-07-09T04:28:00.259Z,21.3
2018-07-09T04:29:05.151Z,21.3
2018-07-09T04:30:09.750Z,21.3
2018-07-09T04:31:15.438Z,21.3
2018-07-09T04:32:20.604Z,21.3
2018-07-09T04:33:25.844Z,21.3
2018-07-09T04:34:31.016Z,21.3
2018-07-09T04:35:36.185Z,21.3
2018-07-09T04:36:41.313Z,21.3
2018-07-09T04:37:46.216Z,21.3
2018-07-09T04:38:52.052Z,21.3
2018-07-09T04:39:56.985Z,21.3
2018-07-09T04:41:02.167Z,21.3
2018-07-09T04:42:06.481Z,21.3
2018-07-09T04:43:11.796Z,21.3
2018-07-09T04:44:17.414Z,21.3
2018-07-09T04:45:22.858Z,21.3
2018-07-09T04:46:28.904Z,21.3
2018-07-09T04:47:34.342Z,21.3
2018-07-09T04:48:39.909Z,21.3
2018-07-09T04:49:45.346Z,21.3
2018-07-09T04:50:50.501Z,21.3
2018-07-09T04:51:56.362Z,21.3
2018-07-09T04:53:01.521Z,21.3
2018-07-09T04:54:06.713Z,21.3
2018-07-09T04:55:12.126Z,21.3
2018-07-09T04:56:16.992Z,21.3
2018-07-09T04:57:22.150Z,21.3
2018-07-09T04:58:42.211Z,21.3
2018-07-09T04:59:47.643Z,21.3
2018-07-09T05:00:53.067Z,21.3
2018-07-09T05:01:58.218Z,21.3
2018-07-09T05:03:03.664Z,21.4
2018-07-09T05:04:09.171Z,21.4
2018-07-09T05:05:13.785Z,21.4
2018-07-09T05:06:18.961Z,21.4
2018-07-09T05:07:25.014Z,21.4
2018-07-09T05:08:30.478Z,21.4
2018-07-09T05:09:36.183Z,21.4
2018-07-09T05:10:41.361Z,21.4
2018-07-09T05:11:46.826Z,21.4
2018-07-09T05:12:52.026Z,21.4
2018-07-09T05:13:57.466Z,21.4
2018-07-09T05:15:02.917Z,21.5
2018-07-09T05:16:08.050Z,21.5
2018-07-09T05:17:13.278Z,21.5
2018-07-09T05:18:18.720Z,21.5
2018-07-09T05:19:24.120Z,21.5
2018-07-09T05:20:28.717Z,21.5
2018-07-09T05:21:34.359Z,21.5
2018-07-09T05:22:39.523Z,21.5
2018-07-09T05:23:44.440Z,21.5
2018-07-09T05:24:50.126Z,21.5
2018-07-09T05:25:55.577Z,21.5
2018-07-09T05:27:00.747Z,21.5
2018-07-09T05:28:05.459Z,21.5
2018-07-09T05:29:10.616Z,21.6
2018-07-09T05:30:16.066Z,21.6
2018-07-09T05:31:21.647Z,21.6
2018-07-09T05:32:26.821Z,21.6
2018-07-09T05:33:32.735Z,21.6
2018-07-09T05:34:37.904Z,21.6
2018-07-09T05:35:43.103Z,21.6
2018-07-09T05:36:48.346Z,21.6
2018-07-09T05:37:52.928Z,21.6
2018-07-09T05:38:58.105Z,21.7
2018-07-09T05:40:03.812Z,21.7
2018-07-09T05:41:09.677Z,21.7
2018-07-09T05:42:15.152Z,21.7
2018-07-09T05:43:21.014Z,21.7
2018-07-09T05:44:26.172Z,21.7
2018-07-09T05:45:31.776Z,21.7
2018-07-09T05:46:37.225Z,21.7
2018-07-09T05:47:42.669Z,21.7
2018-07-09T05:48:48.201Z,21.7
2018-07-09T05:49:53.368Z,21.7
2018-07-09T05:50:58.814Z,21.7
2018-07-09T05:52:04.611Z,21.7
2018-07-09T05:53:09.482Z,21.8
2018-07-09T05:54:14.921Z,21.8
2018-07-09T05:55:20.339Z,21.8
2018-07-09T05:56:25.212Z,21.8
2018-07-09T05:57:31.279Z,21.8
2018-07-09T05:58:36.705Z,21.8
2018-07-09T05:59:42.171Z,21.8
2018-07-09T06:00:48.307Z,21.8
2018-07-09T06:01:53.472Z,21.8
2018-07-09T06:02:58.915Z,21.8
2018-07-09T06:04:04.229Z,21.8
2018-07-09T06:05:09.401Z,21.8
2018-07-09T06:06:14.761Z,21.8
2018-07-09T06:07:20.021Z,21.8
2018-07-09T06:08:24.889Z,21.8
2018-07-09T06:09:30.403Z,21.9
2018-07-09T06:10:35.565Z,21.9
2018-07-09T06:11:41.018Z,21.9
2018-07-09T06:12:46.305Z,21.9
2018-07-09T06:13:51.175Z,21.9
2018-07-09T06:14:56.631Z,21.9
2018-07-09T06:16:02.245Z,21.9
2018-07-09T06:17:07.128Z,21.9
2018-07-09T06:18:12.566Z,21.9
2018-07-09T06:19:17.736Z,21.9
2018-07-09T06:20:22.687Z,21.9
2018-07-09T06:21:28.702Z,21.9
2018-07-09T06:22:33.859Z,21.9
2018-07-09T06:23:38.966Z,21.9
2018-07-09T06:24:44.754Z,21.9
2018-07-09T06:25:49.923Z,21.9
2018-07-09T06:26:55.084Z,21.9
2018-07-09T06:28:00.228Z,22
2018-07-09T06:29:05.067Z,22
2018-07-09T06:30:09.943Z,22
2018-07-09T06:31:15.364Z,22
2018-07-09T06:32:20.528Z,22
2018-07-09T06:33:26.759Z,22
2018-07-09T06:34:31.924Z,22
2018-07-09T06:35:37.092Z,22
2018-07-09T06:38:02.637Z,22
2018-07-09T06:39:07.512Z,22
2018-07-09T06:40:12.936Z,22
2018-07-09T06:41:18.097Z,22
2018-07-09T06:42:23.275Z,22
2018-07-09T06:43:43.313Z,22
2018-07-09T06:44:48.983Z,22.1
2018-07-09T06:45:54.953Z,22.1
2018-07-09T06:47:00.387Z,22.1
2018-07-09T06:48:05.281Z,22.1
2018-07-09T06:49:10.406Z,22.1
2018-07-09T06:50:15.566Z,22.1
2018-07-09T06:51:21.021Z,22.1
2018-07-09T06:52:26.734Z,22.1
2018-07-09T06:53:31.934Z,22.1
2018-07-09T06:54:37.082Z,22.1
2018-07-09T06:55:41.677Z,22.1
2018-07-09T06:56:46.838Z,22.1
2018-07-09T06:57:51.965Z,22.1
2018-07-09T06:58:57.143Z,22.1
2018-07-09T07:00:01.745Z,22.1
2018-07-09T07:01:06.901Z,22.1
2018-07-09T07:02:12.082Z,22.1
2018-07-09T07:03:17.076Z,22.2
2018-07-09T07:04:22.583Z,22.2
2018-07-09T07:05:27.164Z,22.2
2018-07-09T07:06:32.597Z,22.2
2018-07-09T07:07:37.494Z,22.2
2018-07-09T07:08:42.675Z,22.2
2018-07-09T07:09:48.891Z,22.2
2018-07-09T07:10:53.780Z,22.2
2018-07-09T07:11:58.946Z,22.2
2018-07-09T07:13:03.788Z,22.2
2018-07-09T07:14:09.258Z,22.2
2018-07-09T07:15:14.773Z,22.2
2018-07-09T07:16:20.467Z,22.2
2018-07-09T07:17:25.617Z,22.2
2018-07-09T07:18:31.468Z,22.2
2018-07-09T07:19:35.781Z,22.2
2018-07-09T07:20:41.234Z,22.3
2018-07-09T07:21:46.963Z,22.3
2018-07-09T07:22:52.122Z,22.3
2018-07-09T07:23:56.707Z,22.3
2018-07-09T07:25:02.214Z,22.3
2018-07-09T07:26:07.384Z,22.3
2018-07-09T07:27:12.545Z,22.3
2018-07-09T07:28:17.601Z,22.3
2018-07-09T07:29:22.781Z,22.3
2018-07-09T07:30:27.422Z,22.3
2018-07-09T07:31:32.915Z,22.3
2018-07-09T07:32:38.121Z,22.3
2018-07-09T07:33:43.768Z,22.3
2018-07-09T07:34:49.414Z,22.3
2018-07-09T07:35:54.317Z,22.3
2018-07-09T07:37:00.122Z,22.3
2018-07-09T07:38:05.018Z,22.4
2018-07-09T07:39:09.621Z,22.3
2018-07-09T07:40:15.132Z,22.4
2018-07-09T07:41:20.388Z,22.4
2018-07-09T07:42:26.055Z,22.4
2018-07-09T07:43:31.206Z,22.4
2018-07-09T07:44:36.381Z,22.4
2018-07-09T07:45:41.544Z,22.4
2018-07-09T07:46:46.985Z,22.4
2018-07-09T07:47:51.867Z,22.4
2018-07-09T07:48:57.278Z,22.4
2018-07-09T07:50:02.184Z,22.4
2018-07-09T07:51:06.809Z,22.5
2018-07-09T07:52:12.241Z,22.5
2018-07-09T07:53:17.602Z,22.5
2018-07-09T07:54:22.498Z,22.5
2018-07-09T07:55:42.708Z,22.5
2018-07-09T07:56:48.304Z,22.5
2018-07-09T07:57:53.912Z,22.6
2018-07-09T07:58:59.080Z,22.6
2018-07-09T08:00:03.979Z,22.6
2018-07-09T08:01:08.416Z,22.7
2018-07-09T08:02:13.298Z,22.7
2018-07-09T08:03:18.666Z,22.7
2018-07-09T08:04:24.095Z,22.8
2018-07-09T08:05:28.746Z,22.8
2018-07-09T08:06:34.598Z,22.8
2018-07-09T08:07:39.186Z,22.8
2018-07-09T08:08:44.093Z,22.8
2018-07-09T08:09:49.495Z,22.8
2018-07-09T08:10:54.395Z,22.8
2018-07-09T08:13:00.531Z,22.9
2018-07-09T08:14:33.044Z,22.9
2018-07-09T08:15:38.712Z,22.9
2018-07-09T08:16:44.579Z,22.9
2018-07-09T08:17:49.776Z,22.9
2018-07-09T08:18:54.737Z,22.8
2018-07-09T08:19:59.916Z,22.9
2018-07-09T08:21:04.529Z,22.9
2018-07-09T08:22:10.031Z,22.9
2018-07-09T08:23:14.628Z,22.9
2018-07-09T08:24:19.855Z,22.9
2018-07-09T08:25:25.232Z,22.9
2018-07-09T08:26:31.007Z,22.9
2018-07-09T08:27:36.720Z,22.9
2018-07-09T08:28:41.909Z,22.8
2018-07-09T08:29:47.576Z,22.8
2018-07-09T08:30:53.476Z,22.9
2018-07-09T08:31:58.442Z,22.8
2018-07-09T08:33:03.881Z,22.8
2018-07-09T08:34:09.163Z,22.8
2018-07-09T08:35:14.616Z,22.8
2018-07-09T08:36:19.529Z,22.8
2018-07-09T08:37:25.326Z,22.8
2018-07-09T08:38:30.773Z,22.9
2018-07-09T08:39:36.203Z,22.9
2018-07-09T08:40:40.802Z,22.8
2018-07-09T08:41:46.269Z,22.8
2018-07-09T08:42:51.553Z,22.8
2018-07-09T08:43:56.905Z,22.8
2018-07-09T08:45:02.104Z,22.9
2018-07-09T08:46:07.345Z,22.9
2018-07-09T08:47:12.426Z,22.9
2018-07-09T08:48:17.907Z,22.9
2018-07-09T08:49:23.065Z,22.9
2018-07-09T08:50:28.515Z,22.9
2018-07-09T08:51:33.757Z,22.9
2018-07-09T08:52:38.920Z,22.9
2018-07-09T08:53:44.108Z,22.9
2018-07-09T08:54:49.971Z,23
2018-07-09T08:55:54.554Z,23
2018-07-09T08:56:59.711Z,23
2018-07-09T08:58:05.280Z,23
2018-07-09T08:59:10.733Z,23
2018-07-09T09:00:15.597Z,23
2018-07-09T09:01:20.557Z,23
2018-07-09T09:02:25.725Z,23.1
2018-07-09T09:03:31.667Z,23.1
2018-07-09T09:04:36.863Z,23.1
2018-07-09T09:05:42.310Z,23.1
2018-07-09T09:06:48.454Z,23.1
2018-07-09T09:07:53.619Z,23.1
2018-07-09T09:08:58.785Z,23.1
2018-07-09T09:10:04.253Z,23.1
2018-07-09T09:11:09.100Z,23.1
2018-07-09T09:12:14.558Z,23.1
2018-07-09T09:13:20.149Z,23.1
2018-07-09T09:14:25.320Z,23.1
2018-07-09T09:15:30.174Z,23.1
2018-07-09T09:16:35.623Z,23.1
2018-07-09T09:17:41.255Z,23.1
2018-07-09T09:18:46.988Z,23.1
2018-07-09T09:19:51.857Z,23
2018-07-09T09:20:57.033Z,23
2018-07-09T09:22:02.481Z,23
2018-07-09T09:23:07.649Z,23
2018-07-09T09:24:12.556Z,23
2018-07-09T09:25:17.865Z,23
2018-07-09T09:26:22.184Z,23
2018-07-09T09:27:28.557Z,23
2018-07-09T09:28:33.723Z,23.1
2018-07-09T09:29:38.597Z,23.1
2018-07-09T09:30:44.033Z,23.1
2018-07-09T09:31:49.485Z,23
2018-07-09T09:32:54.668Z,23
2018-07-09T09:33:59.908Z,23.1
2018-07-09T09:35:05.072Z,23
2018-07-09T09:36:09.938Z,23
2018-07-09T09:37:15.466Z,23.1
2018-07-09T09:38:20.623Z,23
2018-07-09T09:39:27.686Z,23
2018-07-09T09:40:33.126Z,23
2018-07-09T09:41:38.017Z,23
2018-07-09T09:42:43.708Z,23
2018-07-09T09:43:48.874Z,23
2018-07-09T09:44:54.253Z,23
2018-07-09T09:45:59.516Z,23
2018-07-09T09:47:04.973Z,23.1
2018-07-09T09:48:09.568Z,23
2018-07-09T09:49:15.059Z,23.1
2018-07-09T09:50:20.686Z,23.1
2018-07-09T09:51:26.485Z,23.1
2018-07-09T09:52:31.852Z,23.1
2018-07-09T09:53:37.049Z,23.1
2018-07-09T09:54:42.680Z,23.1
2018-07-09T09:55:47.841Z,23.1
2018-07-09T09:56:53.005Z,23.2
2018-07-09T09:57:58.803Z,23.1
2018-07-09T09:59:04.253Z,23.1
2018-07-09T10:00:09.625Z,23.1
2018-07-09T10:01:14.917Z,23.1
2018-07-09T10:02:20.086Z,23.1
2018-07-09T10:03:26.766Z,23.2
2018-07-09T10:04:31.929Z,23.2
2018-07-09T10:05:37.376Z,23.1
2018-07-09T10:06:42.513Z,23.2
2018-07-09T10:07:47.693Z,23.1
2018-07-09T10:08:53.329Z,23.1
2018-07-09T10:09:58.570Z,23.1
2018-07-09T10:11:04.026Z,23.1
2018-07-09T10:12:09.201Z,23.1
2018-07-09T10:13:14.625Z,23.1
2018-07-09T10:14:19.789Z,23.1
2018-07-09T10:16:45.342Z,23.1
2018-07-09T10:17:50.963Z,23.2
2018-07-09T10:18:57.132Z,23.2
2018-07-09T10:20:02.301Z,23.2
2018-07-09T10:21:06.356Z,23
2018-07-09T10:22:11.199Z,23
2018-07-09T10:23:16.813Z,23
2018-07-09T10:24:22.731Z,22.9
2018-07-09T10:25:42.951Z,23
2018-07-09T10:26:48.117Z,22.9
2018-07-09T10:27:53.535Z,22.9
2018-07-09T10:28:58.974Z,22.9
2018-07-09T10:30:03.859Z,22.9
2018-07-09T10:31:08.981Z,22.9
2018-07-09T10:32:14.478Z,23
2018-07-09T10:33:19.667Z,23
2018-07-09T10:34:25.472Z,23
2018-07-09T10:35:30.660Z,23
2018-07-09T10:36:36.031Z,23
2018-07-09T10:37:41.204Z,22.9
2018-07-09T10:38:46.370Z,22.9
2018-07-09T10:39:51.894Z,22.9
2018-07-09T10:40:56.504Z,22.8
2018-07-09T10:42:01.102Z,22.8
2018-07-09T10:43:05.982Z,22.9
2018-07-09T10:44:11.149Z,22.9
2018-07-09T10:45:16.318Z,22.9
2018-07-09T10:46:22.028Z,22.9
2018-07-09T10:47:27.196Z,23
2018-07-09T10:48:32.073Z,22.9
2018-07-09T10:49:37.506Z,22.9
2018-07-09T10:50:42.697Z,22.8
2018-07-09T10:51:48.352Z,22.8
2018-07-09T10:52:53.244Z,22.8
2018-07-09T10:53:58.157Z,22.9
2018-07-09T10:55:03.861Z,22.9
2018-07-09T10:56:09.122Z,22.9
2018-07-09T10:57:14.599Z,22.8
2018-07-09T10:58:20.076Z,22.8
2018-07-09T10:59:24.937Z,22.8
2018-07-09T11:00:30.959Z,22.8
2018-07-09T11:01:36.435Z,22.9
2018-07-09T11:02:41.599Z,22.9
2018-07-09T11:03:47.014Z,22.9
2018-07-09T11:04:52.178Z,22.8
2018-07-09T11:05:56.982Z,22.8
2018-07-09T11:07:02.193Z,22.7
2018-07-09T11:08:07.081Z,22.8
2018-07-09T11:09:11.683Z,22.8
2018-07-09T11:10:17.439Z,22.8
2018-07-09T11:11:22.908Z,22.8
2018-07-09T11:12:28.171Z,22.8
2018-07-09T11:13:33.629Z,22.8
2018-07-09T11:14:38.782Z,22.7
2018-07-09T11:15:44.203Z,22.7
2018-07-09T11:16:49.080Z,22.8
2018-07-09T11:17:54.240Z,22.8
2018-07-09T11:18:59.242Z,22.8
2018-07-09T11:20:04.415Z,22.8
2018-07-09T11:21:09.502Z,22.7
2018-07-09T11:22:14.665Z,22.7
2018-07-09T11:23:19.841Z,22.7
2018-07-09T11:24:25.471Z,22.7
2018-07-09T11:25:31.673Z,22.7
2018-07-09T11:26:36.894Z,22.6
2018-07-09T11:27:42.546Z,22.7
2018-07-09T11:28:47.720Z,22.7
2018-07-09T11:29:52.889Z,22.7
2018-07-09T11:30:58.453Z,22.7
2018-07-09T11:32:03.323Z,22.7
2018-07-09T11:33:07.655Z,22.7
2018-07-09T11:34:12.346Z,22.6
2018-07-09T11:35:17.434Z,22.6
2018-07-09T11:36:22.904Z,22.5
2018-07-09T11:37:43.381Z,22.5
2018-07-09T11:38:47.989Z,22.6
2018-07-09T11:39:53.395Z,22.6
2018-07-09T11:40:58.767Z,22.6
2018-07-09T11:42:04.147Z,22.5
2018-07-09T11:43:08.795Z,22.6
2018-07-09T11:44:13.946Z,22.6
2018-07-09T11:45:19.102Z,22.6
2018-07-09T11:46:24.795Z,22.6
2018-07-09T11:47:29.958Z,22.6
2018-07-09T11:48:35.662Z,22.6
2018-07-09T11:49:40.544Z,22.6
2018-07-09T11:50:45.719Z,22.6
2018-07-09T11:51:50.855Z,22.6
2018-07-09T11:52:56.006Z,22.5
2018-07-09T11:54:01.451Z,22.5
2018-07-09T11:55:06.619Z,22.6
2018-07-09T11:56:12.081Z,22.6
2018-07-09T11:57:17.231Z,22.5
2018-07-09T11:58:22.442Z,22.5
2018-07-09T11:59:27.612Z,22.4
2018-07-09T12:00:32.889Z,22.5
2018-07-09T12:01:38.044Z,22.5
2018-07-09T12:02:43.205Z,22.6
2018-07-09T12:03:48.896Z,22.5
2018-07-09T12:04:53.901Z,22.6
2018-07-09T12:05:59.095Z,22.6
2018-07-09T12:07:04.245Z,22.6
2018-07-09T12:08:09.891Z,22.6
2018-07-09T12:09:14.787Z,22.5
2018-07-09T12:10:20.549Z,22.6
2018-07-09T12:11:26.050Z,22.5
2018-07-09T12:12:31.619Z,22.5
2018-07-09T12:13:36.774Z,22.5
2018-07-09T12:14:41.661Z,22.5
2018-07-09T12:15:46.938Z,22.5
2018-07-09T12:16:52.115Z,22.5
2018-07-09T12:17:57.296Z,22.5
2018-07-09T12:19:02.708Z,22.5
2018-07-09T12:20:07.622Z,22.5
2018-07-09T12:21:12.797Z,22.5
2018-07-09T12:22:18.115Z,22.4
2018-07-09T12:23:23.534Z,22.3
2018-07-09T12:24:29.088Z,22.4
2018-07-09T12:25:34.446Z,22.3
2018-07-09T12:26:39.334Z,22.3
2018-07-09T12:27:45.032Z,22.3
2018-07-09T12:28:50.241Z,22.2
2018-07-09T12:29:56.046Z,22.1
2018-07-09T12:31:01.945Z,22
2018-07-09T12:32:06.825Z,22.1
2018-07-09T12:33:12.206Z,22.2
2018-07-09T12:34:17.679Z,22.3
2018-07-09T12:35:23.159Z,22.2
2018-07-09T12:36:28.635Z,22.2
2018-07-09T12:37:34.992Z,22.2
2018-07-09T12:38:40.156Z,22.1
2018-07-09T12:39:45.658Z,21.9
2018-07-09T12:40:50.744Z,22
2018-07-09T12:41:56.190Z,22.1
2018-07-09T12:43:01.914Z,22.1
2018-07-09T12:44:07.009Z,22
2018-07-09T12:45:12.181Z,22
2018-07-09T12:46:17.636Z,21.9
2018-07-09T12:47:23.100Z,22
2018-07-09T12:48:27.975Z,22
2018-07-09T12:49:32.289Z,22
2018-07-09T12:50:37.448Z,22.1
2018-07-09T12:51:42.606Z,22.2
2018-07-09T12:52:47.765Z,22.2
2018-07-09T12:53:53.703Z,22.2
2018-07-09T12:54:58.581Z,22.1
2018-07-09T12:56:03.743Z,22.1
2018-07-09T12:57:09.185Z,22.1
2018-07-09T12:58:14.359Z,22.1
2018-07-09T12:59:19.515Z,22.1
2018-07-09T13:00:24.675Z,22.1
2018-07-09T13:01:29.912Z,22.1
2018-07-09T13:02:35.585Z,22.1
2018-07-09T13:03:41.041Z,22.1
2018-07-09T13:04:46.195Z,22.1
2018-07-09T13:05:51.637Z,22.1
2018-07-09T13:06:57.085Z,22.1
2018-07-09T13:08:02.731Z,22.1
2018-07-09T13:09:07.605Z,22.1
2018-07-09T13:10:13.049Z,22.1
2018-07-09T13:11:18.445Z,22.2
2018-07-09T13:12:23.911Z,22.2
2018-07-09T13:13:29.066Z,22.2
2018-07-09T13:14:34.035Z,22.1
2018-07-09T13:15:40.140Z,22.1
2018-07-09T13:16:44.732Z,22.1
2018-07-09T13:17:49.923Z,22
2018-07-09T13:18:55.370Z,22
2018-07-09T13:19:59.993Z,22
2018-07-09T13:21:05.214Z,22
2018-07-09T13:22:09.820Z,22
2018-07-09T13:23:15.199Z,22
2018-07-09T13:24:20.642Z,22
2018-07-09T13:25:26.130Z,22
2018-07-09T13:26:31.897Z,22
2018-07-09T13:27:37.338Z,22
2018-07-09T13:28:42.228Z,22
2018-07-09T13:29:47.388Z,22
2018-07-09T13:30:52.878Z,22
2018-07-09T13:31:58.489Z,22
2018-07-09T13:33:03.813Z,22
2018-07-09T13:34:08.698Z,22
2018-07-09T13:35:13.570Z,22
2018-07-09T13:36:18.738Z,22
2018-07-09T13:37:23.624Z,22
2018-07-09T13:38:28.492Z,22
2018-07-09T13:39:33.366Z,22
2018-07-09T13:40:38.806Z,22
2018-07-09T13:41:44.253Z,22
2018-07-09T13:42:49.718Z,22
2018-07-09T13:43:54.889Z,22
2018-07-09T13:45:00.104Z,22
2018-07-09T13:46:04.683Z,21.9
2018-07-09T13:47:09.564Z,21.9
2018-07-09T13:48:14.149Z,21.9
2018-07-09T13:49:19.287Z,21.9
2018-07-09T13:50:24.441Z,22
2018-07-09T13:51:29.609Z,22
2018-07-09T13:52:35.057Z,21.9
2018-07-09T13:53:40.232Z,21.9
2018-07-09T13:54:45.680Z,21.9
2018-07-09T13:55:51.117Z,21.9
2018-07-09T13:56:56.299Z,21.9
2018-07-09T13:58:01.453Z,21.9
2018-07-09T13:59:06.048Z,21.9
2018-07-09T14:00:10.919Z,21.8
2018-07-09T14:01:16.078Z,21.8
2018-07-09T14:02:21.296Z,21.9
2018-07-09T14:03:26.738Z,21.9
2018-07-09T14:04:32.071Z,21.9
2018-07-09T14:05:37.515Z,21.9
2018-07-09T14:06:42.750Z,21.9
2018-07-09T14:07:48.195Z,21.9
2018-07-09T14:08:53.376Z,21.9
2018-07-09T14:09:58.570Z,21.9
2018-07-09T14:11:03.729Z,21.9
2018-07-09T14:12:08.769Z,22
2018-07-09T14:13:13.954Z,22
2018-07-09T14:14:18.833Z,22.1
2018-07-09T14:15:24.002Z,22.1
2018-07-09T14:16:29.163Z,22.1
2018-07-09T14:17:34.410Z,22.2
2018-07-09T14:18:39.605Z,22.1
2018-07-09T14:19:45.165Z,22.2
2018-07-09T14:20:50.605Z,22.2
2018-07-09T14:21:56.061Z,22.2
2018-07-09T14:23:01.463Z,22.2
2018-07-09T14:24:06.911Z,22.2
2018-07-09T14:25:11.794Z,22.1
2018-07-09T14:26:17.259Z,22.1
2018-07-09T14:27:22.428Z,22.1
2018-07-09T14:28:27.581Z,22.1
2018-07-09T14:29:32.457Z,22.1
2018-07-09T14:30:38.097Z,22.1
2018-07-09T14:31:43.274Z,22.1
2018-07-09T14:32:48.166Z,22.1
2018-07-09T14:33:53.608Z,22.1
2018-07-09T14:34:58.769Z,22.1
2018-07-09T14:36:03.946Z,22.1
2018-07-09T14:37:08.845Z,22.1
2018-07-09T14:38:14.311Z,22.1
2018-07-09T14:39:19.781Z,22.1
2018-07-09T14:40:24.097Z,22.1
2018-07-09T14:41:28.971Z,22.1